Time;durP1;ratioP1;P1;durP2;ratioP2;P2;SDS_P1;SDS_P2;PMS_P1;PMS_P2;Temp;Humidity;BMP_temperature;BMP_pressure;BME280_temperature;BME280_humidity;BME280_pressure;Samples;Min_cycle;Max_cycle;Signal;HPM_P1;HPM_P2
2022/03/25 07:04:09;;;;;;;19.65;13.82;;;;;;;;;;10502117;27;2333765;-79
2022/03/25 07:14:49;;;;;;;18.63;13.52;;;;;;;;;;10443679;28;19909;-79
2022/03/25 07:19:50;;;;;;;;;;;;;;;;;;10575252;28;20035;-79
2022/03/25 07:25:01;;;;;;;22.25;17.65;;;;;;;;;;10610295;28;19904;-79
2022/03/25 07:30:09;;;;;;;25.08;19.25;;;;;;;;;;10592547;28;20058;-79
2022/03/25 07:35:16;;;;;;;33.80;26.02;;;;;;;;;;10591655;28;20103;-80
2022/03/25 07:40:17;;;;;;;36.28;25.98;;;;;;;;;;10590659;28;20032;-79
2022/03/25 07:45:31;;;;;;;20.92;15.50;;;;;;;;;;10609679;28;20026;-78
2022/03/25 07:50:32;;;;;;;26.00;19.42;;;;;;;;;;10591218;28;20091;-79
2022/03/25 07:55:44;;;;;;;28.63;21.92;;;;;;;;;;10591419;28;20489;-79
2022/03/25 08:00:48;;;;;;;15.93;12.73;;;;;;;;;;10608396;28;20035;-80
2022/03/25 08:05:50;;;;;;;22.27;17.70;;;;;;;;;;10582632;28;20028;-79
2022/03/25 08:10:55;;;;;;;30.75;22.90;;;;;;;;;;10594471;28;20028;-80
2022/03/25 08:15:56;;;;;;;35.45;24.70;;;;;;;;;;10542857;28;20020;-81
2022/03/25 08:20:57;;;;;;;31.05;24.85;;;;;;;;;;10540208;28;20055;-80
2022/03/25 08:31:18;;;;;;;46.88;33.40;;;;;;;;;;10556548;28;20036;-80
2022/03/25 08:36:19;;;;;;;27.48;21.17;;;;;;;;;;10556188;28;20020;-80
2022/03/25 08:41:20;;;;;;;29.42;21.55;;;;;;;;;;10554635;28;20425;-78
2022/03/25 08:46:21;;;;;;;30.50;22.42;;;;;;;;;;10535591;28;20064;-80
2022/03/25 08:51:22;;;;;;;26.50;19.70;;;;;;;;;;10536396;28;20031;-80
2022/03/25 08:56:27;;;;;;;29.67;23.67;;;;;;;;;;10536679;28;20390;-80
2022/03/25 09:01:28;;;;;;;20.38;14.85;;;;;;;;;;10538771;28;20120;-81
2022/03/25 09:06:29;;;;;;;22.02;16.75;;;;;;;;;;10555394;28;20045;-80
2022/03/25 09:11:31;;;;;;;18.45;13.40;;;;;;;;;;10530522;28;20032;-80
2022/03/25 09:16:32;;;;;;;20.13;15.98;;;;;;;;;;10531536;28;20023;-82
2022/03/25 09:21:34;;;;;;;33.17;25.90;;;;;;;;;;10535186;28;20023;-81
2022/03/25 09:26:35;;;;;;;31.23;22.63;;;;;;;;;;10534291;28;20032;-80
2022/03/25 09:31:36;;;;;;;29.85;21.90;;;;;;;;;;10535688;28;20040;-81
2022/03/25 09:36:36;;;;;;;31.02;23.17;;;;;;;;;;10546430;28;20024;-80
2022/03/25 09:41:38;;;;;;;16.20;13.35;;;;;;;;;;10540998;28;20131;-79
2022/03/25 09:46:42;;;;;;;25.45;17.70;;;;;;;;;;10549197;28;20031;-81
2022/03/25 09:51:43;;;;;;;20.20;16.38;;;;;;;;;;10531494;28;20477;-80
2022/03/25 09:56:44;;;;;;;22.30;15.38;;;;;;;;;;10530660;28;20118;-81
2022/03/25 10:01:45;;;;;;;27.08;18.17;;;;;;;;;;10532698;28;20032;-80
2022/03/25 10:06:47;;;;;;;28.88;17.95;;;;;;;;;;10532080;28;20043;-81
2022/03/25 10:11:48;;;;;;;23.67;17.60;;;;;;;;;;10534979;28;20485;-80
2022/03/25 10:16:50;;;;;;;20.27;13.63;;;;;;;;;;10533846;28;20405;-80
2022/03/25 10:21:57;;;;;;;21.85;15.13;;;;;;;;;;10532902;28;20081;-82
2022/03/25 10:27:08;;;;;;;23.65;16.80;;;;;;;;;;10533468;28;20059;-81
2022/03/25 10:32:10;;;;;;;22.92;16.60;;;;;;;;;;10531499;28;20062;-80
2022/03/25 10:37:12;;;;;;;29.15;21.05;;;;;;;;;;10531682;28;20020;-80
2022/03/25 10:42:13;;;;;;;19.08;13.77;;;;;;;;;;10531770;28;20392;-81
2022/03/25 10:47:24;;;;;;;24.23;16.65;;;;;;;;;;10509718;22;20388;-81
2022/03/25 10:52:34;;;;;;;22.58;17.25;;;;;;;;;;10453558;28;20055;-79
2022/03/25 10:57:48;;;;;;;20.95;15.05;;;;;;;;;;10460967;28;20089;-78
2022/03/25 11:02:49;;;;;;;26.75;20.10;;;;;;;;;;10443464;28;20071;-79
2022/03/25 11:07:51;;;;;;;21.70;16.45;;;;;;;;;;10444391;28;20021;-79
2022/03/25 11:12:52;;;;;;;25.25;15.15;;;;;;;;;;10445035;28;20128;-79
2022/03/25 11:17:53;;;;;;;24.67;18.73;;;;;;;;;;10445858;28;20470;-79
2022/03/25 11:23:04;;;;;;;23.98;17.15;;;;;;;;;;10449887;28;20056;-81
2022/03/25 11:28:06;;;;;;;17.48;13.15;;;;;;;;;;10445521;28;20029;-79
2022/03/25 11:33:08;;;;;;;20.67;14.80;;;;;;;;;;10445909;28;20033;-79
2022/03/25 11:38:09;;;;;;;25.83;18.40;;;;;;;;;;10446145;28;20441;-79
2022/03/25 11:43:19;;;;;;;26.85;17.67;;;;;;;;;;10443352;28;20060;-79
2022/03/25 11:48:23;;;;;;;24.30;17.40;;;;;;;;;;10448383;28;20056;-79
2022/03/25 11:53:24;;;;;;;19.00;14.57;;;;;;;;;;10450989;28;20044;-79
2022/03/25 11:58:25;;;;;;;31.58;18.75;;;;;;;;;;10451884;28;20116;-82
2022/03/25 12:03:47;;;;;;;23.10;14.30;;;;;;;;;;10451286;28;20115;-79
2022/03/25 12:08:56;;;;;;;24.73;18.35;;;;;;;;;;10451030;28;20106;-79
2022/03/25 12:13:58;;;;;;;19.25;12.10;;;;;;;;;;10470289;28;20048;-79
2022/03/25 12:18:59;;;;;;;24.35;14.15;;;;;;;;;;10463469;28;20025;-82
2022/03/25 12:24:01;;;;;;;17.55;11.18;;;;;;;;;;10457173;28;20104;-83
2022/03/25 12:29:11;;;;;;;17.90;12.45;;;;;;;;;;10456403;28;20029;-79
2022/03/25 12:34:12;;;;;;;13.60;10.75;;;;;;;;;;10447706;28;20025;-79
2022/03/25 12:39:15;;;;;;;18.27;10.40;;;;;;;;;;10450288;28;20048;-80
2022/03/25 12:44:16;;;;;;;11.63;8.38;;;;;;;;;;10459906;28;20044;-79
2022/03/25 12:49:17;;;;;;;15.82;9.75;;;;;;;;;;10457266;28;20029;-80
2022/03/25 12:54:18;;;;;;;14.57;8.70;;;;;;;;;;10449673;28;20561;-76
2022/03/25 12:59:28;;;;;;;15.10;10.10;;;;;;;;;;10442704;28;20052;-76
2022/03/25 13:04:30;;;;;;;16.55;10.43;;;;;;;;;;10442931;28;20171;-77
2022/03/25 13:09:31;;;;;;;30.70;15.18;;;;;;;;;;10462496;28;20021;-78
2022/03/25 13:14:32;;;;;;;18.65;11.98;;;;;;;;;;10462917;28;20017;-78
2022/03/25 13:19:33;;;;;;;18.40;11.63;;;;;;;;;;10443867;28;20029;-77
2022/03/25 13:24:51;;;;;;;13.77;8.98;;;;;;;;;;10442573;28;20032;-76
2022/03/25 13:29:52;;;;;;;17.45;12.25;;;;;;;;;;10441732;28;20033;-77
2022/03/25 13:35:09;;;;;;;10.77;8.27;;;;;;;;;;10459311;28;20435;-76
2022/03/25 13:40:26;;;;;;;22.50;14.77;;;;;;;;;;10459435;28;20033;-76
2022/03/25 13:45:28;;;;;;;17.88;10.52;;;;;;;;;;10442499;28;20127;-78
2022/03/25 13:50:29;;;;;;;19.27;12.02;;;;;;;;;;10459574;28;20021;-76
2022/03/25 13:55:36;;;;;;;20.95;15.32;;;;;;;;;;10441846;28;20021;-77
2022/03/25 14:00:39;;;;;;;22.40;16.70;;;;;;;;;;10442305;28;20036;-77
2022/03/25 14:05:40;;;;;;;17.08;12.80;;;;;;;;;;10441514;28;20025;-77
2022/03/25 14:10:54;;;;;;;20.77;12.15;;;;;;;;;;10459445;28;20032;-80
2022/03/25 14:16:12;;;;;;;17.15;11.88;;;;;;;;;;10449400;28;20104;-76
2022/03/25 14:21:22;;;;;;;14.07;9.95;;;;;;;;;;10447263;28;20123;-77
2022/03/25 14:26:23;;;;;;;36.15;13.10;;;;;;;;;;10449863;28;20025;-80
2022/03/25 14:31:24;;;;;;;19.58;13.40;;;;;;;;;;10455757;28;20029;-82
2022/03/25 14:36:26;;;;;;;21.48;12.57;;;;;;;;;;10480394;28;20032;-81
2022/03/25 14:41:29;;;;;;;22.52;13.70;;;;;;;;;;10465201;28;20128;-81
2022/03/25 14:46:31;;;;;;;16.35;10.88;;;;;;;;;;10457805;28;20060;-81
2022/03/25 14:51:32;;;;;;;16.50;10.57;;;;;;;;;;10462072;28;20025;-80
2022/03/25 14:56:36;;;;;;;15.80;11.45;;;;;;;;;;10473165;28;20017;-81
2022/03/25 15:01:37;;;;;;;14.80;9.23;;;;;;;;;;10452899;28;20025;-79
2022/03/25 15:06:39;;;;;;;19.13;12.48;;;;;;;;;;10471977;28;20029;-80
2022/03/25 15:11:40;;;;;;;21.02;13.80;;;;;;;;;;10455741;28;20469;-82
2022/03/25 15:16:41;;;;;;;14.57;10.23;;;;;;;;;;10454042;28;20028;-80
2022/03/25 15:21:43;;;;;;;14.65;9.93;;;;;;;;;;10453726;28;20507;-79
2022/03/25 15:26:44;;;;;;;18.05;13.07;;;;;;;;;;10480892;28;20025;-79
2022/03/25 15:37:05;;;;;;;21.27;12.50;;;;;;;;;;10465404;28;20084;-78
2022/03/25 15:42:06;;;;;;;13.77;10.65;;;;;;;;;;10446902;28;20029;-78
2022/03/25 15:47:07;;;;;;;18.67;10.13;;;;;;;;;;10464287;28;20465;-77
2022/03/25 15:52:12;;;;;;;13.38;9.15;;;;;;;;;;10449616;28;20404;-77
2022/03/25 15:57:13;;;;;;;13.93;10.13;;;;;;;;;;10447569;28;20025;-78
2022/03/25 16:02:14;;;;;;;14.77;11.57;;;;;;;;;;10447391;28;20028;-78
2022/03/25 16:07:16;;;;;;;14.48;9.57;;;;;;;;;;10449111;28;20021;-79
2022/03/25 16:12:17;;;;;;;20.65;15.23;;;;;;;;;;10446187;28;20032;-77
2022/03/25 16:17:18;;;;;;;14.43;10.93;;;;;;;;;;10445653;28;20028;-77
2022/03/25 16:22:19;;;;;;;12.05;9.50;;;;;;;;;;10444253;28;20060;-77
2022/03/25 16:27:21;;;;;;;26.40;20.67;;;;;;;;;;10446361;28;20476;-79
2022/03/25 16:32:22;;;;;;;18.58;11.73;;;;;;;;;;10462509;28;20037;-79
2022/03/25 16:37:23;;;;;;;13.57;10.07;;;;;;;;;;10475609;28;20051;-80
2022/03/25 16:42:24;;;;;;;17.63;11.23;;;;;;;;;;10478463;28;20100;-81
2022/03/25 16:47:25;;;;;;;17.05;11.90;;;;;;;;;;10448414;28;20553;-79
2022/03/25 16:52:26;;;;;;;16.92;12.77;;;;;;;;;;10441928;28;20159;-78
2022/03/25 16:57:27;;;;;;;15.38;10.98;;;;;;;;;;10443046;28;20025;-75
2022/03/25 17:02:28;;;;;;;16.98;13.52;;;;;;;;;;10441461;28;20029;-75
2022/03/25 17:07:29;;;;;;;21.30;14.68;;;;;;;;;;10459688;28;20100;-77
2022/03/25 17:12:30;;;;;;;22.38;14.82;;;;;;;;;;10460108;28;20033;-77
2022/03/25 17:17:31;;;;;;;18.27;12.23;;;;;;;;;;10441668;28;20033;-77
2022/03/25 17:22:33;;;;;;;17.50;12.57;;;;;;;;;;10461055;28;20031;-77
2022/03/25 17:27:34;;;;;;;19.23;13.60;;;;;;;;;;10453061;28;20039;-80
2022/03/25 17:32:35;;;;;;;21.92;17.52;;;;;;;;;;10453830;28;20025;-80
2022/03/25 17:37:36;;;;;;;15.80;10.75;;;;;;;;;;10452614;28;20021;-80
2022/03/25 17:42:37;;;;;;;19.35;14.85;;;;;;;;;;10455832;28;20089;-79
2022/03/25 17:47:38;;;;;;;13.90;10.90;;;;;;;;;;10468017;28;20029;-80
2022/03/25 17:52:42;;;;;;;19.15;12.98;;;;;;;;;;10455965;28;20040;-80
2022/03/25 17:57:44;;;;;;;22.83;17.92;;;;;;;;;;10454626;28;20038;-80
2022/03/25 18:02:48;;;;;;;13.02;10.50;;;;;;;;;;10466590;28;20025;-80
2022/03/25 18:07:49;;;;;;;22.75;16.50;;;;;;;;;;10462720;28;20422;-80
2022/03/25 18:12:51;;;;;;;14.18;10.65;;;;;;;;;;10460906;28;20047;-80
2022/03/25 18:17:52;;;;;;;18.75;13.82;;;;;;;;;;10460884;28;20021;-80
2022/03/25 18:22:53;;;;;;;13.18;9.77;;;;;;;;;;10461074;28;20474;-80
2022/03/25 18:28:07;;;;;;;19.80;14.75;;;;;;;;;;10461437;28;20029;-80
2022/03/25 18:33:08;;;;;;;14.00;9.90;;;;;;;;;;10460103;28;20029;-82
2022/03/25 18:38:09;;;;;;;13.02;9.40;;;;;;;;;;10468686;28;20021;-81
2022/03/25 18:43:11;;;;;;;15.90;12.18;;;;;;;;;;10452434;28;20029;-83
2022/03/25 18:48:12;;;;;;;15.70;12.30;;;;;;;;;;10451313;28;20032;-82
2022/03/25 18:53:13;;;;;;;12.20;9.98;;;;;;;;;;10451774;28;20025;-82
2022/03/25 18:58:15;;;;;;;10.23;8.70;;;;;;;;;;10450481;28;20021;-80
2022/03/25 19:03:16;;;;;;;13.15;10.40;;;;;;;;;;10450453;28;20112;-83
2022/03/25 19:08:21;;;;;;;21.83;16.80;;;;;;;;;;10453644;28;20029;-81
2022/03/25 19:13:23;;;;;;;17.85;14.25;;;;;;;;;;10470534;28;20037;-81
2022/03/25 19:18:24;;;;;;;14.52;11.43;;;;;;;;;;10448217;28;20021;-82
2022/03/25 19:23:25;;;;;;;12.60;10.63;;;;;;;;;;10450085;28;20033;-82
2022/03/25 19:28:27;;;;;;;17.80;14.18;;;;;;;;;;10450723;28;20025;-82
2022/03/25 19:33:33;;;;;;;18.90;13.63;;;;;;;;;;10449310;28;20036;-81
2022/03/25 19:38:34;;;;;;;14.77;11.73;;;;;;;;;;10453648;28;20021;-83
2022/03/25 19:43:35;;;;;;;15.30;11.95;;;;;;;;;;10468999;28;20102;-83
2022/03/25 19:48:39;;;;;;;15.48;11.93;;;;;;;;;;10449867;28;20036;-83
2022/03/25 19:53:41;;;;;;;16.55;13.02;;;;;;;;;;10436379;28;20032;-83
2022/03/25 19:58:43;;;;;;;16.58;12.32;;;;;;;;;;10470398;28;20028;-84
2022/03/25 20:03:46;;;;;;;18.20;13.10;;;;;;;;;;10474850;28;20032;-80
2022/03/25 20:08:48;;;;;;;12.45;9.93;;;;;;;;;;10451617;28;20478;-80
2022/03/25 20:13:49;;;;;;;14.05;11.48;;;;;;;;;;10440636;28;20100;-82
2022/03/25 20:18:50;;;;;;;13.98;11.18;;;;;;;;;;10417119;28;20018;-82
2022/03/25 20:23:51;;;;;;;18.25;13.35;;;;;;;;;;10416901;28;20065;-82
2022/03/25 20:28:53;;;;;;;16.75;12.10;;;;;;;;;;10431532;28;20096;-83
